sensor_id;sensor_type;location;lat;lon;timestamp;pressure;altitude;pressure_sealevel;temperature;humidity
79048;BME280;68680;50.764;6.120;2023-08-08T00:02:17;99497.66;;;12.91;95.26
79048;BME280;68680;50.764;6.120;2023-08-08T00:04:43;99496.72;;;12.97;93.29
79048;BME280;68680;50.764;6.120;2023-08-08T00:07:09;99487.41;;;12.88;93.21
79048;BME280;68680;50.764;6.120;2023-08-08T00:09:35;99489.06;;;12.89;94.44
79048;BME280;68680;50.764;6.120;2023-08-08T00:12:00;99489.28;;;12.87;93.54
79048;BME280;68680;50.764;6.120;2023-08-08T00:14:26;99487.09;;;12.84;93.45
79048;BME280;68680;50.764;6.120;2023-08-08T00:16:53;99485.00;;;12.86;94.80
79048;BME280;68680;50.764;6.120;2023-08-08T00:19:19;99481.41;;;12.81;93.81
79048;BME280;68680;50.764;6.120;2023-08-08T00:21:45;99481.06;;;12.77;93.52
79048;BME280;68680;50.764;6.120;2023-08-08T00:24:10;99483.97;;;12.75;95.12
79048;BME280;68680;50.764;6.120;2023-08-08T00:26:36;99478.50;;;12.70;94.77
79048;BME280;68680;50.764;6.120;2023-08-08T00:29:02;99479.31;;;12.71;94.77
79048;BME280;68680;50.764;6.120;2023-08-08T00:31:28;99474.78;;;12.71;96.45
79048;BME280;68680;50.764;6.120;2023-08-08T00:33:55;99472.25;;;12.65;96.77
79048;BME280;68680;50.764;6.120;2023-08-08T00:36:21;99475.63;;;12.60;95.99
79048;BME280;68680;50.764;6.120;2023-08-08T00:38:46;99465.75;;;12.61;96.71
79048;BME280;68680;50.764;6.120;2023-08-08T00:41:12;99470.50;;;12.59;96.87
79048;BME280;68680;50.764;6.120;2023-08-08T00:43:38;99466.47;;;12.56;96.38
79048;BME280;68680;50.764;6.120;2023-08-08T00:46:04;99460.75;;;12.53;97.11
79048;BME280;68680;50.764;6.120;2023-08-08T00:48:30;99454.84;;;12.51;97.15
79048;BME280;68680;50.764;6.120;2023-08-08T00:50:58;99454.25;;;12.49;97.32
79048;BME280;68680;50.764;6.120;2023-08-08T00:53:24;99442.66;;;12.43;98.09
79048;BME280;68680;50.764;6.120;2023-08-08T00:55:51;99451.25;;;12.45;97.89
79048;BME280;68680;50.764;6.120;2023-08-08T00:58:17;99447.66;;;12.40;98.43
79048;BME280;68680;50.764;6.120;2023-08-08T01:00:43;99442.06;;;12.41;98.26
79048;BME280;68680;50.764;6.120;2023-08-08T01:03:09;99443.91;;;12.41;98.62
79048;BME280;68680;50.764;6.120;2023-08-08T01:05:42;99444.38;;;12.49;99.96
79048;BME280;68680;50.764;6.120;2023-08-08T01:08:15;99453.31;;;12.55;99.40
79048;BME280;68680;50.764;6.120;2023-08-08T01:10:42;99448.78;;;12.55;99.01
79048;BME280;68680;50.764;6.120;2023-08-08T01:13:13;99445.28;;;12.55;99.83
79048;BME280;68680;50.764;6.120;2023-08-08T01:15:41;99446.09;;;12.55;98.27
79048;BME280;68680;50.764;6.120;2023-08-08T01:18:09;99444.03;;;12.57;97.82
79048;BME280;68680;50.764;6.120;2023-08-08T01:20:37;99436.00;;;12.57;98.21
79048;BME280;68680;50.764;6.120;2023-08-08T01:23:13;99438.41;;;12.59;98.83
79048;BME280;68680;50.764;6.120;2023-08-08T01:25:43;99432.25;;;12.58;98.71
79048;BME280;68680;50.764;6.120;2023-08-08T01:28:09;99432.94;;;12.65;98.08
79048;BME280;68680;50.764;6.120;2023-08-08T01:30:35;99436.41;;;12.66;97.00
79048;BME280;68680;50.764;6.120;2023-08-08T01:33:01;99438.50;;;12.64;96.70
79048;BME280;68680;50.764;6.120;2023-08-08T01:35:32;99434.47;;;12.61;97.05
79048;BME280;68680;50.764;6.120;2023-08-08T01:38:09;99433.75;;;12.66;97.11
79048;BME280;68680;50.764;6.120;2023-08-08T01:40:38;99442.72;;;12.60;97.21
79048;BME280;68680;50.764;6.120;2023-08-08T01:43:06;99436.44;;;12.54;98.14
79048;BME280;68680;50.764;6.120;2023-08-08T01:45:33;99443.22;;;12.45;98.54
79048;BME280;68680;50.764;6.120;2023-08-08T01:47:58;99439.50;;;12.46;98.64
79048;BME280;68680;50.764;6.120;2023-08-08T01:50:24;99441.22;;;12.52;98.51
79048;BME280;68680;50.764;6.120;2023-08-08T01:52:50;99446.94;;;12.44;97.84
79048;BME280;68680;50.764;6.120;2023-08-08T01:55:16;99451.16;;;12.40;98.36
79048;BME280;68680;50.764;6.120;2023-08-08T01:57:42;99445.94;;;12.33;98.72
79048;BME280;68680;50.764;6.120;2023-08-08T02:00:11;99447.91;;;12.26;99.09
79048;BME280;68680;50.764;6.120;2023-08-08T02:02:36;99444.66;;;12.24;99.10
79048;BME280;68680;50.764;6.120;2023-08-08T02:05:03;99442.56;;;12.26;100.00
79048;BME280;68680;50.764;6.120;2023-08-08T02:07:28;99439.56;;;12.23;99.67
79048;BME280;68680;50.764;6.120;2023-08-08T02:09:54;99435.34;;;12.27;100.00
79048;BME280;68680;50.764;6.120;2023-08-08T02:12:20;99433.94;;;12.24;99.71
79048;BME280;68680;50.764;6.120;2023-08-08T02:14:46;99428.50;;;12.19;100.00
79048;BME280;68680;50.764;6.120;2023-08-08T02:17:13;99425.81;;;12.31;100.00
79048;BME280;68680;50.764;6.120;2023-08-08T02:19:39;99424.66;;;12.27;100.00
79048;BME280;68680;50.764;6.120;2023-08-08T02:22:04;99414.53;;;12.17;100.00
79048;BME280;68680;50.764;6.120;2023-08-08T02:24:30;99421.41;;;12.25;100.00
79048;BME280;68680;50.764;6.120;2023-08-08T02:26:56;99418.50;;;12.15;100.00
79048;BME280;68680;50.764;6.120;2023-08-08T02:29:22;99419.56;;;12.14;100.00
79048;BME280;68680;50.764;6.120;2023-08-08T02:31:48;99425.38;;;12.11;100.00
79048;BME280;68680;50.764;6.120;2023-08-08T02:34:15;99417.09;;;12.12;100.00
79048;BME280;68680;50.764;6.120;2023-08-08T02:36:40;99420.03;;;12.11;100.00
79048;BME280;68680;50.764;6.120;2023-08-08T02:39:06;99416.09;;;12.02;100.00
79048;BME280;68680;50.764;6.120;2023-08-08T02:41:32;99420.38;;;12.03;100.00
79048;BME280;68680;50.764;6.120;2023-08-08T02:43:58;99428.06;;;11.99;100.00
79048;BME280;68680;50.764;6.120;2023-08-08T02:46:23;99412.38;;;12.03;100.00
79048;BME280;68680;50.764;6.120;2023-08-08T02:48:49;99414.00;;;12.04;100.00
79048;BME280;68680;50.764;6.120;2023-08-08T02:51:17;99411.44;;;11.97;100.00
79048;BME280;68680;50.764;6.120;2023-08-08T02:53:42;99408.06;;;12.02;100.00
79048;BME280;68680;50.764;6.120;2023-08-08T02:56:08;99408.53;;;11.99;100.00
79048;BME280;68680;50.764;6.120;2023-08-08T02:58:34;99401.56;;;11.98;100.00
79048;BME280;68680;50.764;6.120;2023-08-08T03:01:00;99398.19;;;12.02;100.00
79048;BME280;68680;50.764;6.120;2023-08-08T03:03:25;99393.06;;;12.01;100.00
79048;BME280;68680;50.764;6.120;2023-08-08T03:05:51;99396.31;;;12.03;100.00
79048;BME280;68680;50.764;6.120;2023-08-08T03:08:18;99401.34;;;11.99;100.00
79048;BME280;68680;50.764;6.120;2023-08-08T03:10:44;99406.69;;;11.99;100.00
79048;BME280;68680;50.764;6.120;2023-08-08T03:13:10;99396.22;;;11.98;100.00
79048;BME280;68680;50.764;6.120;2023-08-08T03:15:36;99390.19;;;11.90;100.00
79048;BME280;68680;50.764;6.120;2023-08-08T03:18:02;99395.53;;;11.90;100.00
79048;BME280;68680;50.764;6.120;2023-08-08T03:20:28;99388.22;;;11.86;100.00
79048;BME280;68680;50.764;6.120;2023-08-08T03:22:54;99394.16;;;11.88;100.00
79048;BME280;68680;50.764;6.120;2023-08-08T03:25:21;99389.59;;;11.88;100.00
79048;BME280;68680;50.764;6.120;2023-08-08T03:27:47;99391.69;;;11.98;100.00
79048;BME280;68680;50.764;6.120;2023-08-08T03:30:14;99391.78;;;12.03;100.00
79048;BME280;68680;50.764;6.120;2023-08-08T03:32:40;99387.97;;;11.99;100.00
79048;BME280;68680;50.764;6.120;2023-08-08T03:35:07;99394.47;;;12.03;100.00
79048;BME280;68680;50.764;6.120;2023-08-08T03:37:32;99387.25;;;12.15;100.00
79048;BME280;68680;50.764;6.120;2023-08-08T03:39:59;99386.66;;;12.13;100.00
79048;BME280;68680;50.764;6.120;2023-08-08T03:42:26;99392.47;;;12.22;100.00
79048;BME280;68680;50.764;6.120;2023-08-08T03:44:52;99380.84;;;12.16;100.00
79048;BME280;68680;50.764;6.120;2023-08-08T03:47:18;99379.09;;;12.22;100.00
79048;BME280;68680;50.764;6.120;2023-08-08T03:49:44;99384.78;;;12.25;100.00
79048;BME280;68680;50.764;6.120;2023-08-08T03:52:10;99376.75;;;12.25;100.00
79048;BME280;68680;50.764;6.120;2023-08-08T03:54:35;99381.28;;;12.25;100.00
79048;BME280;68680;50.764;6.120;2023-08-08T03:57:01;99374.78;;;12.21;100.00
79048;BME280;68680;50.764;6.120;2023-08-08T03:59:28;99382.69;;;12.27;100.00
79048;BME280;68680;50.764;6.120;2023-08-08T04:01:54;99378.16;;;12.28;100.00
79048;BME280;68680;50.764;6.120;2023-08-08T04:04:20;99380.47;;;12.24;100.00
79048;BME280;68680;50.764;6.120;2023-08-08T04:06:45;99381.06;;;12.26;100.00
79048;BME280;68680;50.764;6.120;2023-08-08T04:09:11;99382.56;;;12.34;100.00
79048;BME280;68680;50.764;6.120;2023-08-08T04:11:37;99386.06;;;12.34;100.00
79048;BME280;68680;50.764;6.120;2023-08-08T04:14:03;99379.88;;;12.34;100.00
79048;BME280;68680;50.764;6.120;2023-08-08T04:16:30;99373.00;;;12.38;100.00
79048;BME280;68680;50.764;6.120;2023-08-08T04:18:56;99366.03;;;12.37;100.00
79048;BME280;68680;50.764;6.120;2023-08-08T04:21:21;99371.47;;;12.42;100.00
79048;BME280;68680;50.764;6.120;2023-08-08T04:23:47;99369.69;;;12.48;100.00
79048;BME280;68680;50.764;6.120;2023-08-08T04:26:13;99367.84;;;12.48;100.00
79048;BME280;68680;50.764;6.120;2023-08-08T04:28:39;99372.97;;;12.50;100.00
79048;BME280;68680;50.764;6.120;2023-08-08T04:31:04;99370.88;;;12.52;100.00
79048;BME280;68680;50.764;6.120;2023-08-08T04:33:31;99382.84;;;12.49;100.00
79048;BME280;68680;50.764;6.120;2023-08-08T04:35:57;99380.66;;;12.46;100.00
79048;BME280;68680;50.764;6.120;2023-08-08T04:38:23;99383.44;;;12.51;100.00
79048;BME280;68680;50.764;6.120;2023-08-08T04:40:49;99378.09;;;12.51;100.00
79048;BME280;68680;50.764;6.120;2023-08-08T04:43:15;99363.25;;;12.60;100.00
79048;BME280;68680;50.764;6.120;2023-08-08T04:45:40;99370.25;;;12.61;100.00
79048;BME280;68680;50.764;6.120;2023-08-08T04:48:06;99373.06;;;12.55;100.00
79048;BME280;68680;50.764;6.120;2023-08-08T04:50:34;99372.06;;;12.44;100.00
79048;BME280;68680;50.764;6.120;2023-08-08T04:52:59;99370.66;;;12.42;100.00
79048;BME280;68680;50.764;6.120;2023-08-08T04:55:25;99365.88;;;12.44;100.00
79048;BME280;68680;50.764;6.120;2023-08-08T04:57:51;99361.13;;;12.46;100.00
79048;BME280;68680;50.764;6.120;2023-08-08T05:00:17;99352.50;;;12.44;100.00
79048;BME280;68680;50.764;6.120;2023-08-08T05:02:43;99351.13;;;12.41;100.00
79048;BME280;68680;50.764;6.120;2023-08-08T05:05:09;99352.50;;;12.44;100.00
79048;BME280;68680;50.764;6.120;2023-08-08T05:07:36;99359.91;;;12.53;100.00
79048;BME280;68680;50.764;6.120;2023-08-08T05:10:02;99356.78;;;12.56;100.00
79048;BME280;68680;50.764;6.120;2023-08-08T05:12:28;99354.81;;;12.52;100.00
79048;BME280;68680;50.764;6.120;2023-08-08T05:14:54;99355.59;;;12.52;100.00
79048;BME280;68680;50.764;6.120;2023-08-08T05:17:20;99357.81;;;12.55;100.00
79048;BME280;68680;50.764;6.120;2023-08-08T05:19:46;99362.34;;;12.55;100.00
79048;BME280;68680;50.764;6.120;2023-08-08T05:22:11;99361.72;;;12.64;100.00
79048;BME280;68680;50.764;6.120;2023-08-08T05:24:39;99355.56;;;12.64;100.00
79048;BME280;68680;50.764;6.120;2023-08-08T05:27:05;99359.50;;;12.73;100.00
79048;BME280;68680;50.764;6.120;2023-08-08T05:29:31;99358.34;;;12.69;100.00
79048;BME280;68680;50.764;6.120;2023-08-08T05:31:56;99359.00;;;12.76;100.00
79048;BME280;68680;50.764;6.120;2023-08-08T05:34:24;99361.94;;;12.74;100.00
79048;BME280;68680;50.764;6.120;2023-08-08T05:36:50;99365.16;;;12.76;100.00
79048;BME280;68680;50.764;6.120;2023-08-08T05:39:15;99359.53;;;12.90;100.00
79048;BME280;68680;50.764;6.120;2023-08-08T05:41:42;99351.25;;;12.91;100.00
79048;BME280;68680;50.764;6.120;2023-08-08T05:44:08;99351.81;;;12.93;100.00
79048;BME280;68680;50.764;6.120;2023-08-08T05:46:34;99356.13;;;12.94;100.00
79048;BME280;68680;50.764;6.120;2023-08-08T05:49:00;99354.41;;;12.88;100.00
79048;BME280;68680;50.764;6.120;2023-08-08T05:51:25;99357.72;;;12.79;100.00
79048;BME280;68680;50.764;6.120;2023-08-08T05:53:51;99355.13;;;12.84;100.00
79048;BME280;68680;50.764;6.120;2023-08-08T05:56:17;99357.06;;;12.88;100.00
79048;BME280;68680;50.764;6.120;2023-08-08T05:58:44;99369.25;;;12.96;100.00
79048;BME280;68680;50.764;6.120;2023-08-08T06:01:10;99365.13;;;13.05;100.00
79048;BME280;68680;50.764;6.120;2023-08-08T06:03:36;99372.19;;;13.11;100.00
79048;BME280;68680;50.764;6.120;2023-08-08T06:06:01;99368.03;;;13.15;100.00
79048;BME280;68680;50.764;6.120;2023-08-08T06:08:27;99360.22;;;13.13;100.00
79048;BME280;68680;50.764;6.120;2023-08-08T06:10:53;99364.31;;;13.16;100.00
79048;BME280;68680;50.764;6.120;2023-08-08T06:13:19;99355.78;;;13.19;100.00
79048;BME280;68680;50.764;6.120;2023-08-08T06:15:46;99362.53;;;13.22;100.00
79048;BME280;68680;50.764;6.120;2023-08-08T06:18:11;99360.72;;;13.27;100.00
79048;BME280;68680;50.764;6.120;2023-08-08T06:20:37;99367.44;;;13.30;100.00
79048;BME280;68680;50.764;6.120;2023-08-08T06:23:03;99368.84;;;13.32;100.00
79048;BME280;68680;50.764;6.120;2023-08-08T06:25:29;99375.56;;;13.35;100.00
79048;BME280;68680;50.764;6.120;2023-08-08T06:27:55;99371.91;;;13.41;100.00
79048;BME280;68680;50.764;6.120;2023-08-08T06:30:21;99379.88;;;13.36;100.00
79048;BME280;68680;50.764;6.120;2023-08-08T06:32:48;99373.47;;;13.37;100.00
79048;BME280;68680;50.764;6.120;2023-08-08T06:35:14;99373.53;;;13.42;100.00
79048;BME280;68680;50.764;6.120;2023-08-08T06:37:39;99382.22;;;13.49;100.00
79048;BME280;68680;50.764;6.120;2023-08-08T06:40:07;99384.00;;;13.60;100.00
79048;BME280;68680;50.764;6.120;2023-08-08T06:42:33;99380.38;;;13.49;100.00
79048;BME280;68680;50.764;6.120;2023-08-08T06:44:59;99385.00;;;13.54;100.00
79048;BME280;68680;50.764;6.120;2023-08-08T06:47:24;99380.66;;;13.70;100.00
79048;BME280;68680;50.764;6.120;2023-08-08T06:49:51;99375.81;;;13.67;99.59
79048;BME280;68680;50.764;6.120;2023-08-08T06:52:17;99379.78;;;13.64;99.61
79048;BME280;68680;50.764;6.120;2023-08-08T06:54:43;99377.53;;;13.56;100.00
79048;BME280;68680;50.764;6.120;2023-08-08T06:57:09;99369.69;;;13.71;99.07
79048;BME280;68680;50.764;6.120;2023-08-08T06:59:34;99381.00;;;13.73;99.27
79048;BME280;68680;50.764;6.120;2023-08-08T07:02:00;99374.03;;;13.94;98.42
79048;BME280;68680;50.764;6.120;2023-08-08T07:04:26;99378.94;;;13.97;98.64
79048;BME280;68680;50.764;6.120;2023-08-08T07:06:53;99373.94;;;14.06;98.56
79048;BME280;68680;50.764;6.120;2023-08-08T07:09:19;99366.13;;;14.04;96.96
79048;BME280;68680;50.764;6.120;2023-08-08T07:11:44;99371.59;;;14.09;97.01
79048;BME280;68680;50.764;6.120;2023-08-08T07:14:10;99367.81;;;14.10;96.79
79048;BME280;68680;50.764;6.120;2023-08-08T07:16:36;99366.47;;;14.29;98.16
79048;BME280;68680;50.764;6.120;2023-08-08T07:19:02;99365.88;;;14.27;95.51
79048;BME280;68680;50.764;6.120;2023-08-08T07:21:27;99373.88;;;14.22;97.17
79048;BME280;68680;50.764;6.120;2023-08-08T07:23:54;99373.50;;;14.35;96.04
79048;BME280;68680;50.764;6.120;2023-08-08T07:26:20;99361.22;;;14.39;94.63
79048;BME280;68680;50.764;6.120;2023-08-08T07:28:46;99367.03;;;14.31;96.11
79048;BME280;68680;50.764;6.120;2023-08-08T07:31:12;99368.75;;;14.37;95.13
79048;BME280;68680;50.764;6.120;2023-08-08T07:33:37;99373.84;;;14.39;96.05
79048;BME280;68680;50.764;6.120;2023-08-08T07:36:04;99366.75;;;14.50;94.76
79048;BME280;68680;50.764;6.120;2023-08-08T07:38:30;99360.41;;;14.61;95.40
79048;BME280;68680;50.764;6.120;2023-08-08T07:40:58;99354.59;;;14.69;93.70
79048;BME280;68680;50.764;6.120;2023-08-08T07:43:24;99360.84;;;14.79;93.60
79048;BME280;68680;50.764;6.120;2023-08-08T07:45:50;99371.69;;;14.85;94.33
79048;BME280;68680;50.764;6.120;2023-08-08T07:48:15;99354.94;;;14.77;92.81
79048;BME280;68680;50.764;6.120;2023-08-08T07:50:41;99363.88;;;14.83;92.45
79048;BME280;68680;50.764;6.120;2023-08-08T07:53:09;99364.47;;;14.90;92.65
79048;BME280;68680;50.764;6.120;2023-08-08T07:55:37;99365.34;;;14.96;92.25
79048;BME280;68680;50.764;6.120;2023-08-08T07:58:07;99351.13;;;15.00;91.93
79048;BME280;68680;50.764;6.120;2023-08-08T08:00:54;99353.25;;;14.98;90.34
79048;BME280;68680;50.764;6.120;2023-08-08T08:03:20;99356.84;;;15.09;91.21
79048;BME280;68680;50.764;6.120;2023-08-08T08:05:46;99365.66;;;15.04;90.00
79048;BME280;68680;50.764;6.120;2023-08-08T08:08:12;99360.38;;;15.14;90.80
79048;BME280;68680;50.764;6.120;2023-08-08T08:10:37;99359.97;;;15.28;91.13
79048;BME280;68680;50.764;6.120;2023-08-08T08:13:04;99362.81;;;15.16;89.41
79048;BME280;68680;50.764;6.120;2023-08-08T08:15:30;99368.06;;;15.33;89.31
79048;BME280;68680;50.764;6.120;2023-08-08T08:17:56;99362.44;;;15.34;89.99
79048;BME280;68680;50.764;6.120;2023-08-08T08:20:22;99361.66;;;15.39;90.00
79048;BME280;68680;50.764;6.120;2023-08-08T08:22:48;99358.47;;;15.42;88.92
79048;BME280;68680;50.764;6.120;2023-08-08T08:25:14;99356.91;;;15.51;89.39
79048;BME280;68680;50.764;6.120;2023-08-08T08:27:40;99369.88;;;15.54;89.98
79048;BME280;68680;50.764;6.120;2023-08-08T08:30:08;99361.28;;;15.57;88.73
79048;BME280;68680;50.764;6.120;2023-08-08T08:32:34;99368.31;;;15.63;88.76
79048;BME280;68680;50.764;6.120;2023-08-08T08:35:01;99369.16;;;15.69;85.95
79048;BME280;68680;50.764;6.120;2023-08-08T08:37:26;99379.13;;;15.73;87.34
79048;BME280;68680;50.764;6.120;2023-08-08T08:39:52;99369.50;;;15.77;84.51
79048;BME280;68680;50.764;6.120;2023-08-08T08:42:18;99363.06;;;15.78;83.60
79048;BME280;68680;50.764;6.120;2023-08-08T08:44:46;99367.03;;;15.71;85.02
79048;BME280;68680;50.764;6.120;2023-08-08T08:47:17;99373.72;;;15.68;83.49
79048;BME280;68680;50.764;6.120;2023-08-08T08:49:45;99382.28;;;15.60;82.89
79048;BME280;68680;50.764;6.120;2023-08-08T08:52:12;99368.88;;;15.65;81.59
79048;BME280;68680;50.764;6.120;2023-08-08T08:54:38;99376.19;;;15.75;84.21
79048;BME280;68680;50.764;6.120;2023-08-08T08:57:04;99386.47;;;15.83;82.44
79048;BME280;68680;50.764;6.120;2023-08-08T08:59:30;99380.50;;;15.76;80.07
79048;BME280;68680;50.764;6.120;2023-08-08T09:01:57;99368.72;;;15.82;82.25
79048;BME280;68680;50.764;6.120;2023-08-08T09:04:24;99365.03;;;15.98;81.36
79048;BME280;68680;50.764;6.120;2023-08-08T09:06:50;99359.19;;;16.06;83.05
79048;BME280;68680;50.764;6.120;2023-08-08T09:09:17;99372.91;;;16.10;82.86
79048;BME280;68680;50.764;6.120;2023-08-08T09:11:45;99368.88;;;16.12;81.97
79048;BME280;68680;50.764;6.120;2023-08-08T09:14:17;99371.56;;;16.12;82.36
79048;BME280;68680;50.764;6.120;2023-08-08T09:16:45;99375.94;;;16.23;81.20
79048;BME280;68680;50.764;6.120;2023-08-08T09:19:11;99376.75;;;16.24;79.75
79048;BME280;68680;50.764;6.120;2023-08-08T09:21:38;99378.63;;;16.23;82.14
79048;BME280;68680;50.764;6.120;2023-08-08T09:24:04;99375.56;;;16.05;81.18
79048;BME280;68680;50.764;6.120;2023-08-08T09:26:30;99366.41;;;16.00;81.01
79048;BME280;68680;50.764;6.120;2023-08-08T09:28:56;99376.88;;;15.97;79.54
79048;BME280;68680;50.764;6.120;2023-08-08T09:31:25;99379.13;;;16.15;82.02
79048;BME280;68680;50.764;6.120;2023-08-08T09:33:51;99374.59;;;16.31;80.97
79048;BME280;68680;50.764;6.120;2023-08-08T09:36:17;99384.00;;;16.23;78.05
79048;BME280;68680;50.764;6.120;2023-08-08T09:38:44;99389.34;;;16.13;79.60
79048;BME280;68680;50.764;6.120;2023-08-08T09:41:10;99385.06;;;16.17;81.06
79048;BME280;68680;50.764;6.120;2023-08-08T09:43:36;99381.22;;;16.08;78.21
79048;BME280;68680;50.764;6.120;2023-08-08T09:46:02;99380.94;;;15.99;78.96
79048;BME280;68680;50.764;6.120;2023-08-08T09:48:30;99380.72;;;16.11;81.02
79048;BME280;68680;50.764;6.120;2023-08-08T09:50:57;99374.25;;;16.07;79.86
79048;BME280;68680;50.764;6.120;2023-08-08T09:53:23;99375.63;;;16.20;79.26
79048;BME280;68680;50.764;6.120;2023-08-08T09:55:51;99369.19;;;16.26;79.04
79048;BME280;68680;50.764;6.120;2023-08-08T09:58:19;99369.53;;;16.39;78.87
79048;BME280;68680;50.764;6.120;2023-08-08T10:00:45;99364.47;;;16.48;79.95
79048;BME280;68680;50.764;6.120;2023-08-08T10:03:11;99376.31;;;16.57;80.13
79048;BME280;68680;50.764;6.120;2023-08-08T10:05:37;99384.47;;;16.67;79.44
79048;BME280;68680;50.764;6.120;2023-08-08T10:08:03;99365.59;;;16.67;78.06
79048;BME280;68680;50.764;6.120;2023-08-08T10:10:30;99377.13;;;16.58;75.52
79048;BME280;68680;50.764;6.120;2023-08-08T10:12:58;99382.50;;;16.53;75.73
79048;BME280;68680;50.764;6.120;2023-08-08T10:15:26;99376.91;;;16.59;76.99
79048;BME280;68680;50.764;6.120;2023-08-08T10:17:56;99381.50;;;16.64;76.08
79048;BME280;68680;50.764;6.120;2023-08-08T10:20:24;99380.44;;;16.70;77.36
79048;BME280;68680;50.764;6.120;2023-08-08T10:22:53;99379.13;;;16.82;76.74
79048;BME280;68680;50.764;6.120;2023-08-08T10:25:23;99380.44;;;16.65;75.21
79048;BME280;68680;50.764;6.120;2023-08-08T10:27:49;99371.00;;;16.72;74.30
79048;BME280;68680;50.764;6.120;2023-08-08T10:30:16;99371.53;;;16.69;74.52
79048;BME280;68680;50.764;6.120;2023-08-08T10:32:44;99371.78;;;16.63;75.06
79048;BME280;68680;50.764;6.120;2023-08-08T10:35:11;99375.56;;;16.67;74.68
79048;BME280;68680;50.764;6.120;2023-08-08T10:37:39;99371.88;;;16.83;75.92
79048;BME280;68680;50.764;6.120;2023-08-08T10:40:06;99368.34;;;16.88;77.05
79048;BME280;68680;50.764;6.120;2023-08-08T10:42:40;99375.09;;;16.90;77.20
79048;BME280;68680;50.764;6.120;2023-08-08T10:45:11;99361.34;;;16.97;77.26
79048;BME280;68680;50.764;6.120;2023-08-08T10:47:38;99365.66;;;16.98;75.90
79048;BME280;68680;50.764;6.120;2023-08-08T10:50:06;99359.72;;;16.96;74.22
79048;BME280;68680;50.764;6.120;2023-08-08T10:52:32;99358.13;;;17.05;75.13
79048;BME280;68680;50.764;6.120;2023-08-08T10:54:58;99363.78;;;17.03;73.97
79048;BME280;68680;50.764;6.120;2023-08-08T10:57:25;99361.63;;;16.90;74.79
79048;BME280;68680;50.764;6.120;2023-08-08T10:59:51;99354.91;;;16.93;76.52
79048;BME280;68680;50.764;6.120;2023-08-08T11:02:17;99359.16;;;16.78;73.63
79048;BME280;68680;50.764;6.120;2023-08-08T11:04:47;99365.09;;;16.75;73.91
79048;BME280;68680;50.764;6.120;2023-08-08T11:07:15;99355.97;;;16.81;74.57
79048;BME280;68680;50.764;6.120;2023-08-08T11:09:40;99365.91;;;16.81;75.51
79048;BME280;68680;50.764;6.120;2023-08-08T11:12:13;99361.84;;;16.68;73.77
79048;BME280;68680;50.764;6.120;2023-08-08T11:14:39;99371.53;;;16.59;73.83
79048;BME280;68680;50.764;6.120;2023-08-08T11:17:05;99366.34;;;16.53;72.48
79048;BME280;68680;50.764;6.120;2023-08-08T11:19:38;99363.09;;;16.51;73.77
79048;BME280;68680;50.764;6.120;2023-08-08T11:22:09;99356.06;;;16.39;73.33
79048;BME280;68680;50.764;6.120;2023-08-08T11:24:35;99361.72;;;16.43;74.20
79048;BME280;68680;50.764;6.120;2023-08-08T11:27:01;99357.97;;;16.44;72.61
79048;BME280;68680;50.764;6.120;2023-08-08T11:29:27;99349.88;;;16.39;73.13
79048;BME280;68680;50.764;6.120;2023-08-08T11:31:53;99349.88;;;16.34;72.61
79048;BME280;68680;50.764;6.120;2023-08-08T11:34:19;99347.97;;;16.24;75.03
79048;BME280;68680;50.764;6.120;2023-08-08T11:36:45;99341.75;;;16.19;73.94
79048;BME280;68680;50.764;6.120;2023-08-08T11:39:13;99347.41;;;16.27;73.34
79048;BME280;68680;50.764;6.120;2023-08-08T11:41:39;99347.41;;;16.22;74.72
79048;BME280;68680;50.764;6.120;2023-08-08T11:44:07;99342.28;;;16.21;74.44
79048;BME280;68680;50.764;6.120;2023-08-08T11:46:33;99342.28;;;16.21;74.99
79048;BME280;68680;50.764;6.120;2023-08-08T11:49:04;99332.84;;;16.18;75.39
79048;BME280;68680;50.764;6.120;2023-08-08T11:51:29;99350.59;;;16.14;73.59
79048;BME280;68680;50.764;6.120;2023-08-08T11:53:55;99344.94;;;16.16;75.10
79048;BME280;68680;50.764;6.120;2023-08-08T11:56:22;99343.88;;;16.17;72.37
79048;BME280;68680;50.764;6.120;2023-08-08T11:58:50;99343.41;;;16.35;73.60
79048;BME280;68680;50.764;6.120;2023-08-08T12:01:19;99347.75;;;16.41;71.75
79048;BME280;68680;50.764;6.120;2023-08-08T12:03:46;99338.03;;;16.40;70.92
79048;BME280;68680;50.764;6.120;2023-08-08T12:06:12;99344.75;;;16.42;72.70
79048;BME280;68680;50.764;6.120;2023-08-08T12:08:41;99347.19;;;16.44;72.66
79048;BME280;68680;50.764;6.120;2023-08-08T12:11:09;99347.75;;;16.41;72.25
79048;BME280;68680;50.764;6.120;2023-08-08T12:13:37;99352.00;;;16.32;74.99
79048;BME280;68680;50.764;6.120;2023-08-08T12:16:04;99346.06;;;16.25;73.93
79048;BME280;68680;50.764;6.120;2023-08-08T12:18:30;99346.34;;;16.28;74.26
79048;BME280;68680;50.764;6.120;2023-08-08T12:20:55;99355.72;;;16.21;73.17
79048;BME280;68680;50.764;6.120;2023-08-08T12:23:21;99343.38;;;16.25;76.03
79048;BME280;68680;50.764;6.120;2023-08-08T12:25:47;99335.56;;;16.23;74.75
79048;BME280;68680;50.764;6.120;2023-08-08T12:28:13;99340.94;;;16.23;74.35
79048;BME280;68680;50.764;6.120;2023-08-08T12:30:40;99341.25;;;16.37;75.10
79048;BME280;68680;50.764;6.120;2023-08-08T12:33:06;99347.22;;;16.54;73.79
79048;BME280;68680;50.764;6.120;2023-08-08T12:35:32;99338.88;;;16.56;75.93
79048;BME280;68680;50.764;6.120;2023-08-08T12:37:57;99332.22;;;16.63;73.57
79048;BME280;68680;50.764;6.120;2023-08-08T12:40:23;99331.38;;;16.58;72.00
79048;BME280;68680;50.764;6.120;2023-08-08T12:42:49;99327.41;;;16.80;73.91
79048;BME280;68680;50.764;6.120;2023-08-08T12:45:15;99333.03;;;16.84;73.92
79048;BME280;68680;50.764;6.120;2023-08-08T12:47:42;99333.84;;;16.74;72.87
79048;BME280;68680;50.764;6.120;2023-08-08T12:50:08;99339.25;;;16.90;73.38
79048;BME280;68680;50.764;6.120;2023-08-08T12:52:34;99336.03;;;16.88;74.37
79048;BME280;68680;50.764;6.120;2023-08-08T12:55:00;99330.59;;;16.77;73.07